Time;durP1;ratioP1;P1;durP2;ratioP2;P2;SDS_P1;SDS_P2;PMS_P1;PMS_P2;Temp;Humidity;BMP_temperature;BMP_pressure;BME280_temperature;BME280_humidity;BME280_pressure;Samples;Min_cycle;Max_cycle;Signal;HPM_P1;HPM_P2
2022/04/14 00:01:18;;;;;;;32.57;22.87;;;;;;;;;;5029561;28;20214;-71
2022/04/14 00:03:43;;;;;;;37.27;24.43;;;;;;;;;;5027953;28;20238;-70
2022/04/14 00:06:09;;;;;;;38.93;23.30;;;;;;;;;;5029131;28;20178;-70
2022/04/14 00:08:34;;;;;;;35.67;23.73;;;;;;;;;;5029503;28;20264;-70
2022/04/14 00:10:59;;;;;;;35.17;25.63;;;;;;;;;;5030395;28;20185;-70
2022/04/14 00:13:24;;;;;;;35.30;24.70;;;;;;;;;;5033725;28;20214;-70
2022/04/14 00:15:50;;;;;;;31.90;24.13;;;;;;;;;;5030436;28;20192;-70
2022/04/14 00:18:15;;;;;;;29.40;21.93;;;;;;;;;;5034117;28;20198;-70
2022/04/14 00:20:40;;;;;;;33.90;22.47;;;;;;;;;;5032358;28;20181;-71
2022/04/14 00:23:06;;;;;;;32.50;23.53;;;;;;;;;;5032827;28;20206;-70
2022/04/14 00:25:31;;;;;;;30.10;22.87;;;;;;;;;;5032321;28;20515;-70
2022/04/14 00:27:56;;;;;;;33.37;23.63;;;;;;;;;;5032763;28;20742;-70
2022/04/14 00:30:21;;;;;;;38.70;26.33;;;;;;;;;;5033142;28;20253;-68
2022/04/14 00:32:46;;;;;;;33.30;24.60;;;;;;;;;;5030188;28;20620;-70
2022/04/14 00:35:11;;;;;;;41.20;27.73;;;;;;;;;;5031355;28;20247;-70
2022/04/14 00:37:39;;;;;;;41.17;26.27;;;;;;;;;;5032752;28;20212;-71
2022/04/14 00:40:05;;;;;;;40.40;27.70;;;;;;;;;;5025836;28;22036;-70
2022/04/14 00:42:30;;;;;;;39.13;26.53;;;;;;;;;;5032068;28;20231;-70
2022/04/14 00:44:55;;;;;;;41.73;27.33;;;;;;;;;;5030230;28;20252;-70
2022/04/14 00:47:21;;;;;;;35.80;25.60;;;;;;;;;;5029217;28;20676;-67
2022/04/14 00:49:46;;;;;;;36.63;26.77;;;;;;;;;;5029757;28;20183;-70
2022/04/14 00:52:13;;;;;;;35.47;25.87;;;;;;;;;;5030956;28;20657;-70
2022/04/14 00:54:39;;;;;;;37.57;26.13;;;;;;;;;;5031537;28;20182;-70
2022/04/14 00:57:04;;;;;;;38.97;27.77;;;;;;;;;;5033592;28;20189;-70
2022/04/14 00:59:29;;;;;;;38.23;26.53;;;;;;;;;;5032717;28;20198;-70
2022/04/14 01:01:55;;;;;;;36.93;25.63;;;;;;;;;;5031112;28;20266;-70
2022/04/14 01:04:20;;;;;;;35.30;24.30;;;;;;;;;;5031261;28;20276;-70
2022/04/14 01:06:45;;;;;;;34.30;24.60;;;;;;;;;;5031308;28;21679;-70
2022/04/14 01:09:20;;;;;;;37.17;25.47;;;;;;;;;;5032742;28;20206;-70
2022/04/14 01:11:49;;;;;;;37.87;23.73;;;;;;;;;;5031143;28;20196;-70
2022/04/14 01:14:19;;;;;;;36.93;25.80;;;;;;;;;;5031605;28;20214;-70
2022/04/14 01:16:44;;;;;;;36.97;25.27;;;;;;;;;;5025993;28;20286;-69
2022/04/14 01:19:10;;;;;;;37.17;25.33;;;;;;;;;;5031949;28;20289;-70
2022/04/14 01:21:35;;;;;;;36.80;26.17;;;;;;;;;;5030949;28;20603;-70
2022/04/14 01:24:01;;;;;;;39.07;25.57;;;;;;;;;;5027533;28;20221;-70
2022/04/14 01:26:26;;;;;;;42.60;28.00;;;;;;;;;;5028599;28;20186;-70
2022/04/14 01:28:52;;;;;;;38.73;25.67;;;;;;;;;;5032638;28;20190;-70
2022/04/14 01:31:17;;;;;;;40.10;26.27;;;;;;;;;;5030552;28;20196;-70
2022/04/14 01:33:42;;;;;;;41.50;26.93;;;;;;;;;;5028130;28;20688;-71
2022/04/14 01:36:07;;;;;;;37.87;27.00;;;;;;;;;;5031952;28;20232;-69
2022/04/14 01:38:32;;;;;;;38.83;27.80;;;;;;;;;;5023815;28;20703;-70
2022/04/14 01:40:57;;;;;;;39.30;28.33;;;;;;;;;;5026883;28;20245;-70
2022/04/14 01:43:23;;;;;;;44.13;27.37;;;;;;;;;;5021041;28;20355;-70
2022/04/14 01:45:50;;;;;;;43.30;30.27;;;;;;;;;;5030248;28;20175;-70
2022/04/14 01:48:16;;;;;;;42.03;28.57;;;;;;;;;;5028675;28;20670;-70
2022/04/14 01:50:41;;;;;;;47.87;30.57;;;;;;;;;;5016170;28;20240;-70
2022/04/14 01:53:06;;;;;;;44.93;28.90;;;;;;;;;;5024291;28;20182;-70
2022/04/14 01:55:31;;;;;;;48.57;32.40;;;;;;;;;;5029726;28;20651;-71
2022/04/14 01:57:56;;;;;;;52.07;31.63;;;;;;;;;;5030562;28;20236;-71
2022/04/14 02:00:22;;;;;;;50.43;31.50;;;;;;;;;;5031718;28;20648;-70
2022/04/14 02:02:47;;;;;;;47.63;31.00;;;;;;;;;;5029936;28;20260;-70
2022/04/14 02:05:12;;;;;;;50.57;32.80;;;;;;;;;;5030918;28;20182;-70
2022/04/14 02:07:37;;;;;;;48.77;32.23;;;;;;;;;;5031408;28;20190;-69
2022/04/14 02:10:03;;;;;;;49.37;31.87;;;;;;;;;;5031348;28;20183;-70
2022/04/14 02:12:29;;;;;;;50.17;32.07;;;;;;;;;;5029258;28;20228;-70
2022/04/14 02:14:54;;;;;;;49.17;32.53;;;;;;;;;;5030284;28;20178;-70
2022/04/14 02:17:19;;;;;;;53.30;32.60;;;;;;;;;;5032426;28;20742;-70
2022/04/14 02:19:45;;;;;;;49.30;30.53;;;;;;;;;;5026403;28;20190;-70
2022/04/14 02:22:10;;;;;;;50.83;31.50;;;;;;;;;;5031027;28;20228;-70
2022/04/14 02:24:35;;;;;;;53.73;31.57;;;;;;;;;;5030242;28;20696;-70
2022/04/14 02:27:00;;;;;;;50.73;31.73;;;;;;;;;;5030758;28;20827;-70
2022/04/14 02:29:25;;;;;;;54.10;31.83;;;;;;;;;;5029799;28;20232;-70
2022/04/14 02:31:53;;;;;;;63.00;35.03;;;;;;;;;;5031094;28;20273;-70
2022/04/14 02:34:19;;;;;;;45.80;31.43;;;;;;;;;;5027593;28;20647;-70
2022/04/14 02:36:44;;;;;;;45.40;29.03;;;;;;;;;;5026115;28;20178;-70
2022/04/14 02:39:09;;;;;;;46.47;30.03;;;;;;;;;;5031634;28;20198;-70
2022/04/14 02:41:35;;;;;;;44.13;29.63;;;;;;;;;;5029588;28;20257;-70
2022/04/14 02:44:00;;;;;;;42.87;29.63;;;;;;;;;;5028655;28;20205;-70
2022/04/14 02:46:25;;;;;;;45.57;29.23;;;;;;;;;;5030799;28;20178;-70
2022/04/14 02:48:50;;;;;;;46.80;28.97;;;;;;;;;;5028741;28;20229;-70
2022/04/14 02:51:15;;;;;;;39.10;26.23;;;;;;;;;;5027787;28;20195;-70
2022/04/14 02:53:41;;;;;;;41.20;27.20;;;;;;;;;;5026075;28;20182;-69
2022/04/14 02:56:06;;;;;;;41.63;25.37;;;;;;;;;;5029412;28;20592;-70
2022/04/14 02:58:31;;;;;;;38.67;25.77;;;;;;;;;;5026440;28;20217;-70
2022/04/14 03:00:57;;;;;;;38.50;26.30;;;;;;;;;;5028317;28;20192;-70
2022/04/14 03:03:24;;;;;;;40.30;26.07;;;;;;;;;;5027437;28;20617;-69
2022/04/14 03:05:49;;;;;;;41.00;27.10;;;;;;;;;;5028941;28;20340;-70
2022/04/14 03:08:14;;;;;;;38.83;27.17;;;;;;;;;;5029567;28;20301;-70
2022/04/14 03:10:39;;;;;;;41.13;26.77;;;;;;;;;;5029208;28;20175;-70
2022/04/14 03:13:04;;;;;;;42.63;27.57;;;;;;;;;;5030056;28;20604;-70
2022/04/14 03:15:30;;;;;;;43.37;28.83;;;;;;;;;;5028940;28;20193;-69
2022/04/14 03:17:55;;;;;;;42.43;28.07;;;;;;;;;;5030616;28;20194;-69
2022/04/14 03:20:20;;;;;;;50.80;31.03;;;;;;;;;;5030525;28;20608;-70
2022/04/14 03:22:45;;;;;;;52.00;29.90;;;;;;;;;;5030198;28;20273;-70
2022/04/14 03:25:11;;;;;;;50.83;32.93;;;;;;;;;;5028201;28;20204;-70
2022/04/14 03:27:37;;;;;;;51.30;30.43;;;;;;;;;;5029775;28;20261;-70
2022/04/14 03:30:02;;;;;;;42.43;28.57;;;;;;;;;;5028515;28;20265;-70
2022/04/14 03:32:28;;;;;;;41.27;26.13;;;;;;;;;;5029484;28;20538;-67
2022/04/14 03:34:53;;;;;;;42.30;26.77;;;;;;;;;;5019374;28;20179;-70
2022/04/14 03:37:18;;;;;;;31.53;21.33;;;;;;;;;;5027145;28;20614;-70
2022/04/14 03:39:43;;;;;;;35.97;22.63;;;;;;;;;;5028726;28;20198;-70
2022/04/14 03:42:08;;;;;;;36.23;23.70;;;;;;;;;;5029126;28;20679;-70
2022/04/14 03:44:34;;;;;;;33.40;22.37;;;;;;;;;;5028976;28;20213;-70
2022/04/14 03:46:59;;;;;;;36.53;22.37;;;;;;;;;;5033801;28;20259;-69
2022/04/14 03:49:24;;;;;;;33.73;23.67;;;;;;;;;;5033920;28;20275;-70
2022/04/14 03:51:49;;;;;;;31.77;22.27;;;;;;;;;;5034107;28;20322;-70
2022/04/14 03:54:14;;;;;;;30.77;22.00;;;;;;;;;;5031456;28;20547;-69
2022/04/14 03:56:40;;;;;;;32.83;21.73;;;;;;;;;;5034424;28;20553;-69
2022/04/14 03:59:05;;;;;;;29.67;19.67;;;;;;;;;;5032053;28;20213;-69
2022/04/14 04:01:30;;;;;;;33.80;20.47;;;;;;;;;;5034106;28;20186;-69
2022/04/14 04:03:55;;;;;;;36.23;21.43;;;;;;;;;;5032896;28;20212;-70
2022/04/14 04:06:20;;;;;;;30.27;20.17;;;;;;;;;;5033239;28;20206;-70
2022/04/14 04:08:45;;;;;;;34.63;21.63;;;;;;;;;;5032585;28;20217;-70
2022/04/14 04:11:11;;;;;;;37.20;24.13;;;;;;;;;;5031322;28;20174;-70
2022/04/14 04:13:36;;;;;;;48.03;28.57;;;;;;;;;;5032256;28;20192;-68
2022/04/14 04:16:01;;;;;;;55.63;32.60;;;;;;;;;;5033222;28;20184;-68
2022/04/14 04:18:26;;;;;;;49.17;29.47;;;;;;;;;;5033257;28;20198;-70
2022/04/14 04:20:51;;;;;;;51.80;29.67;;;;;;;;;;5032811;28;20693;-70
2022/04/14 04:23:17;;;;;;;49.87;30.07;;;;;;;;;;5032903;28;20213;-68
2022/04/14 04:25:42;;;;;;;48.23;30.27;;;;;;;;;;5032345;28;20608;-69
2022/04/14 04:28:07;;;;;;;53.17;31.40;;;;;;;;;;5032715;28;20206;-70
2022/04/14 04:30:32;;;;;;;45.90;30.60;;;;;;;;;;5032921;28;20182;-70
2022/04/14 04:32:57;;;;;;;46.97;30.80;;;;;;;;;;5031014;28;20182;-70
2022/04/14 04:35:23;;;;;;;47.03;30.90;;;;;;;;;;5031026;28;20182;-69
2022/04/14 04:37:48;;;;;;;57.47;33.07;;;;;;;;;;5032155;28;20202;-70
2022/04/14 04:40:14;;;;;;;47.37;30.03;;;;;;;;;;5032074;28;20640;-70
2022/04/14 04:42:39;;;;;;;47.03;28.87;;;;;;;;;;5032463;28;20206;-70
2022/04/14 04:45:04;;;;;;;48.70;30.53;;;;;;;;;;5031499;28;20235;-69
2022/04/14 04:47:30;;;;;;;52.93;30.97;;;;;;;;;;5026934;28;20255;-69
2022/04/14 04:49:55;;;;;;;48.40;30.93;;;;;;;;;;5032270;28;20191;-69
2022/04/14 04:52:20;;;;;;;50.10;28.90;;;;;;;;;;5031472;28;20182;-70
2022/04/14 04:54:45;;;;;;;47.17;29.03;;;;;;;;;;5030141;28;20182;-69
2022/04/14 04:57:10;;;;;;;45.87;28.77;;;;;;;;;;5028565;28;20178;-70
2022/04/14 04:59:36;;;;;;;42.40;27.83;;;;;;;;;;5030278;28;20565;-70
2022/04/14 05:02:01;;;;;;;42.53;27.90;;;;;;;;;;5017265;28;20193;-69
2022/04/14 05:04:26;;;;;;;48.77;29.80;;;;;;;;;;5030497;28;20213;-70
2022/04/14 05:06:51;;;;;;;47.33;28.80;;;;;;;;;;5032823;28;20178;-71
2022/04/14 05:09:17;;;;;;;58.23;33.17;;;;;;;;;;5031734;28;20237;-70
2022/04/14 05:11:42;;;;;;;51.13;32.57;;;;;;;;;;5031960;28;20173;-70
2022/04/14 05:14:08;;;;;;;50.90;31.10;;;;;;;;;;5029256;28;20201;-69
2022/04/14 05:16:33;;;;;;;50.23;32.57;;;;;;;;;;5030670;28;20193;-70
2022/04/14 05:18:59;;;;;;;52.77;33.17;;;;;;;;;;5031978;28;20202;-70
2022/04/14 05:21:24;;;;;;;52.33;32.73;;;;;;;;;;5032861;28;20182;-69
2022/04/14 05:23:49;;;;;;;51.63;32.40;;;;;;;;;;5031558;28;20203;-69
2022/04/14 05:26:14;;;;;;;55.90;33.73;;;;;;;;;;5032356;28;20220;-69
2022/04/14 05:28:39;;;;;;;52.10;32.73;;;;;;;;;;5032861;28;20857;-69
2022/04/14 05:31:05;;;;;;;48.07;31.93;;;;;;;;;;5029134;28;20187;-69
2022/04/14 05:33:30;;;;;;;54.00;32.70;;;;;;;;;;5030079;28;20663;-68
2022/04/14 05:35:55;;;;;;;48.57;31.83;;;;;;;;;;5031503;28;20195;-69
2022/04/14 05:38:20;;;;;;;48.70;31.50;;;;;;;;;;5033005;28;20244;-69
2022/04/14 05:40:45;;;;;;;44.50;30.40;;;;;;;;;;5029943;28;20194;-69
2022/04/14 05:43:15;;;;;;;50.17;31.60;;;;;;;;;;5028833;28;20198;-69
2022/04/14 05:45:44;;;;;;;45.77;29.60;;;;;;;;;;5028973;28;20257;-68
2022/04/14 05:48:09;;;;;;;42.30;29.93;;;;;;;;;;5027614;28;20187;-69
2022/04/14 05:50:34;;;;;;;49.80;30.53;;;;;;;;;;5030424;28;20181;-69
2022/04/14 05:52:59;;;;;;;44.30;29.53;;;;;;;;;;5030359;28;20229;-68
2022/04/14 05:55:25;;;;;;;44.47;29.23;;;;;;;;;;5030060;28;20734;-69
2022/04/14 05:57:50;;;;;;;39.87;28.30;;;;;;;;;;5031110;28;20259;-69
2022/04/14 06:00:15;;;;;;;37.80;26.90;;;;;;;;;;5031688;28;20723;-69
2022/04/14 06:02:40;;;;;;;38.67;27.73;;;;;;;;;;5028907;28;20206;-69
2022/04/14 06:05:06;;;;;;;38.03;26.67;;;;;;;;;;5024713;28;20186;-69
2022/04/14 06:07:31;;;;;;;36.63;25.43;;;;;;;;;;5025228;28;20277;-68
2022/04/14 06:09:56;;;;;;;34.00;24.90;;;;;;;;;;5030230;28;20171;-69
2022/04/14 06:12:21;;;;;;;30.97;21.83;;;;;;;;;;5031121;28;20174;-69
2022/04/14 06:14:47;;;;;;;28.07;20.87;;;;;;;;;;5029435;28;20176;-69
2022/04/14 06:17:12;;;;;;;29.43;20.83;;;;;;;;;;5031339;28;20652;-69
2022/04/14 06:19:38;;;;;;;25.83;19.53;;;;;;;;;;5031334;28;20194;-69
2022/04/14 06:22:03;;;;;;;25.33;19.27;;;;;;;;;;5030382;28;20178;-71
2022/04/14 06:24:28;;;;;;;28.07;19.17;;;;;;;;;;5021961;28;20210;-71
2022/04/14 06:26:54;;;;;;;21.13;17.23;;;;;;;;;;5023287;28;20185;-67
2022/04/14 06:29:19;;;;;;;21.20;17.20;;;;;;;;;;5029942;28;20675;-69
2022/04/14 06:31:44;;;;;;;22.10;16.63;;;;;;;;;;5031260;28;20188;-70
2022/04/14 06:34:09;;;;;;;20.50;16.73;;;;;;;;;;5031059;28;20551;-67
2022/04/14 06:36:34;;;;;;;22.03;16.50;;;;;;;;;;5030588;28;20265;-69
2022/04/14 06:38:59;;;;;;;22.60;16.17;;;;;;;;;;5031569;28;20190;-69
2022/04/14 06:41:26;;;;;;;21.30;16.27;;;;;;;;;;5025777;28;20675;-69
2022/04/14 06:43:51;;;;;;;19.35;15.07;;;;;;;;;;5029523;28;20244;-70
2022/04/14 06:46:16;;;;;;;18.75;14.30;;;;;;;;;;5031582;28;20178;-69
2022/04/14 06:48:42;;;;;;;20.65;15.88;;;;;;;;;;5031395;28;20457;-70
2022/04/14 06:51:07;;;;;;;18.52;14.90;;;;;;;;;;5029986;28;20170;-70
2022/04/14 06:53:33;;;;;;;18.33;14.07;;;;;;;;;;5030999;28;20177;-69
2022/04/14 06:55:58;;;;;;;17.90;13.43;;;;;;;;;;5031417;28;20261;-71
2022/04/14 06:58:23;;;;;;;18.55;13.02;;;;;;;;;;5025306;28;20206;-69
2022/04/14 07:00:48;;;;;;;19.20;13.27;;;;;;;;;;5018146;28;20182;-69
2022/04/14 07:03:13;;;;;;;15.52;12.50;;;;;;;;;;5025775;28;20285;-69
2022/04/14 07:05:39;;;;;;;16.83;12.60;;;;;;;;;;5026195;28;20170;-69
2022/04/14 07:08:04;;;;;;;18.50;12.50;;;;;;;;;;5021790;28;20746;-70
2022/04/14 07:10:29;;;;;;;16.98;12.35;;;;;;;;;;5015172;28;20241;-70
2022/04/14 07:12:55;;;;;;;17.40;13.32;;;;;;;;;;5025792;28;20189;-69
2022/04/14 07:15:21;;;;;;;15.45;12.35;;;;;;;;;;5027655;28;20265;-69
2022/04/14 07:17:46;;;;;;;13.77;12.32;;;;;;;;;;5026053;28;20344;-69
2022/04/14 07:20:11;;;;;;;15.93;12.20;;;;;;;;;;5026455;28;20675;-70
2022/04/14 07:22:44;;;;;;;21.17;13.05;;;;;;;;;;5030409;28;20423;-70
2022/04/14 07:25:10;;;;;;;14.60;12.23;;;;;;;;;;5029043;28;20234;-69
2022/04/14 07:27:35;;;;;;;17.08;11.27;;;;;;;;;;5033578;28;20264;-69
2022/04/14 07:30:00;;;;;;;14.25;12.05;;;;;;;;;;5033359;28;20251;-70
2022/04/14 07:32:32;;;;;;;17.10;13.40;;;;;;;;;;5033636;28;20186;-70
2022/04/14 07:34:58;;;;;;;18.42;12.95;;;;;;;;;;5033659;28;20411;-68
2022/04/14 07:37:23;;;;;;;15.43;11.17;;;;;;;;;;5034372;28;20819;-70
2022/04/14 07:39:48;;;;;;;15.60;12.60;;;;;;;;;;5034826;28;20502;-68
2022/04/14 07:42:13;;;;;;;14.37;11.50;;;;;;;;;;5029310;28;20431;-70
2022/04/14 07:44:38;;;;;;;16.75;12.02;;;;;;;;;;5027007;28;20558;-69
2022/04/14 07:47:04;;;;;;;13.93;12.30;;;;;;;;;;5031413;28;20182;-69
2022/04/14 07:49:29;;;;;;;15.30;11.95;;;;;;;;;;5032352;28;20498;-69
2022/04/14 07:51:55;;;;;;;15.75;12.15;;;;;;;;;;5022715;28;20660;-70
2022/04/14 07:54:21;;;;;;;13.40;12.00;;;;;;;;;;5024942;28;20213;-69
2022/04/14 07:56:47;;;;;;;14.23;12.10;;;;;;;;;;5030098;28;20253;-70
2022/04/14 07:59:12;;;;;;;15.95;12.75;;;;;;;;;;5032719;28;20293;-70
2022/04/14 08:01:37;;;;;;;15.95;12.45;;;;;;;;;;5030321;28;20640;-68
2022/04/14 08:04:02;;;;;;;17.47;12.47;;;;;;;;;;5026007;28;20312;-68
2022/04/14 08:06:29;;;;;;;16.38;12.52;;;;;;;;;;5032787;28;20498;-68
2022/04/14 08:08:54;;;;;;;16.63;14.10;;;;;;;;;;5024362;28;20309;-68
2022/04/14 08:11:19;;;;;;;15.20;12.73;;;;;;;;;;5024649;28;20190;-68
2022/04/14 08:13:44;;;;;;;17.48;11.93;;;;;;;;;;5029135;28;20201;-68
2022/04/14 08:16:10;;;;;;;12.88;10.55;;;;;;;;;;5033967;28;20170;-68
2022/04/14 08:18:38;;;;;;;16.35;10.90;;;;;;;;;;5028330;28;20203;-68
2022/04/14 08:21:03;;;;;;;12.52;10.32;;;;;;;;;;5027490;28;20178;-68
2022/04/14 08:23:30;;;;;;;15.80;11.07;;;;;;;;;;5030464;28;20572;-70
2022/04/14 08:25:55;;;;;;;14.02;10.73;;;;;;;;;;5033182;28;20214;-68
2022/04/14 08:28:21;;;;;;;13.25;10.10;;;;;;;;;;5026596;28;20232;-68
2022/04/14 08:30:46;;;;;;;14.75;10.45;;;;;;;;;;5028430;28;20177;-68
2022/04/14 08:33:12;;;;;;;12.35;10.02;;;;;;;;;;5031598;28;20174;-68
2022/04/14 08:35:37;;;;;;;14.45;9.93;;;;;;;;;;5027999;28;20186;-69
2022/04/14 08:38:03;;;;;;;13.10;9.27;;;;;;;;;;5031339;28;20202;-68
2022/04/14 08:40:32;;;;;;;11.32;9.88;;;;;;;;;;5031832;28;20644;-68
2022/04/14 08:43:07;;;;;;;14.02;10.75;;;;;;;;;;5029124;28;20272;-68
2022/04/14 08:45:34;;;;;;;14.32;11.02;;;;;;;;;;5023631;28;20170;-68
2022/04/14 08:48:00;;;;;;;13.55;9.70;;;;;;;;;;5029614;28;20190;-69
2022/04/14 08:50:26;;;;;;;13.80;10.55;;;;;;;;;;5033288;28;20175;-68
2022/04/14 08:52:51;;;;;;;13.23;10.25;;;;;;;;;;5028012;28;20678;-68
2022/04/14 08:55:17;;;;;;;15.07;11.05;;;;;;;;;;5028838;28;20178;-68
2022/04/14 08:57:43;;;;;;;14.20;10.93;;;;;;;;;;5028747;28;20198;-67
2022/04/14 09:00:10;;;;;;;12.73;10.38;;;;;;;;;;5030602;28;20186;-66
2022/04/14 09:02:35;;;;;;;13.73;9.95;;;;;;;;;;5028906;28;20710;-67
2022/04/14 09:05:02;;;;;;;11.23;9.60;;;;;;;;;;5027914;28;20185;-68
2022/04/14 09:07:27;;;;;;;13.00;10.20;;;;;;;;;;5029935;28;20189;-67
2022/04/14 09:09:52;;;;;;;12.03;9.53;;;;;;;;;;5026518;28;20559;-67
2022/04/14 09:12:18;;;;;;;16.27;9.32;;;;;;;;;;5008564;28;20511;-68
2022/04/14 09:14:43;;;;;;;11.98;9.38;;;;;;;;;;5007241;28;20192;-67
2022/04/14 09:17:09;;;;;;;13.35;9.52;;;;;;;;;;5018471;28;20190;-68
2022/04/14 09:19:35;;;;;;;12.48;10.15;;;;;;;;;;5026531;28;20198;-67
2022/04/14 09:22:01;;;;;;;12.35;10.13;;;;;;;;;;5027051;28;20190;-68
2022/04/14 09:24:39;;;;;;;14.60;9.50;;;;;;;;;;5029302;28;20197;-68
2022/04/14 09:27:04;;;;;;;13.88;9.27;;;;;;;;;;5032133;28;20177;-68
2022/04/14 09:29:29;;;;;;;11.70;9.52;;;;;;;;;;5030014;28;20194;-68
2022/04/14 09:31:54;;;;;;;10.80;8.55;;;;;;;;;;5029555;28;20232;-68
2022/04/14 09:34:38;;;;;;;12.05;9.35;;;;;;;;;;5031745;28;20193;-68
2022/04/14 09:37:04;;;;;;;10.93;8.48;;;;;;;;;;5023417;28;20182;-67
2022/04/14 09:39:29;;;;;;;14.52;8.30;;;;;;;;;;5027304;28;20218;-68
2022/04/14 09:41:54;;;;;;;11.48;7.53;;;;;;;;;;5025431;28;20171;-67
2022/04/14 09:44:19;;;;;;;8.63;6.57;;;;;;;;;;5029254;28;20553;-68
2022/04/14 09:46:45;;;;;;;12.03;7.63;;;;;;;;;;5028145;28;20434;-67
2022/04/14 09:49:11;;;;;;;12.70;7.53;;;;;;;;;;5027697;28;20194;-67
2022/04/14 09:51:39;;;;;;;7.28;6.25;;;;;;;;;;5029062;28;20658;-68
2022/04/14 09:54:12;;;;;;;10.38;6.82;;;;;;;;;;5031344;28;20330;-68
2022/04/14 09:56:41;;;;;;;10.55;7.00;;;;;;;;;;5024927;28;20175;-68
2022/04/14 09:59:07;;;;;;;11.95;7.00;;;;;;;;;;5030815;28;20271;-68
2022/04/14 10:01:32;;;;;;;8.73;7.00;;;;;;;;;;5032270;28;20170;-68
2022/04/14 10:03:57;;;;;;;9.80;7.33;;;;;;;;;;5023794;28;20263;-67
2022/04/14 10:06:22;;;;;;;7.90;6.43;;;;;;;;;;5028079;28;20198;-67
2022/04/14 10:08:48;;;;;;;9.63;7.33;;;;;;;;;;5031741;28;20530;-68
2022/04/14 10:11:14;;;;;;;8.90;6.50;;;;;;;;;;5029793;28;20197;-68
2022/04/14 10:13:39;;;;;;;8.20;6.20;;;;;;;;;;5031122;28;20625;-68
2022/04/14 10:16:05;;;;;;;10.73;6.82;;;;;;;;;;5031548;28;20411;-68
2022/04/14 10:18:30;;;;;;;6.80;5.40;;;;;;;;;;5027233;28;20202;-67
2022/04/14 10:20:56;;;;;;;7.53;6.05;;;;;;;;;;5032299;28;20181;-68
2022/04/14 10:23:22;;;;;;;10.80;5.82;;;;;;;;;;5028641;28;20206;-68
2022/04/14 10:25:50;;;;;;;12.43;7.03;;;;;;;;;;5029978;28;20582;-68
2022/04/14 10:28:16;;;;;;;7.75;6.63;;;;;;;;;;5029488;28;20206;-68
2022/04/14 10:30:48;;;;;;;10.45;6.25;;;;;;;;;;5030256;28;20257;-68
2022/04/14 10:33:14;;;;;;;7.28;6.25;;;;;;;;;;5028538;28;20256;-68
2022/04/14 10:35:39;;;;;;;8.45;7.18;;;;;;;;;;5021988;28;20190;-68
2022/04/14 10:38:12;;;;;;;8.10;6.60;;;;;;;;;;5031463;28;20206;-68
2022/04/14 10:40:42;;;;;;;8.60;6.00;;;;;;;;;;5028534;28;20427;-68
2022/04/14 10:43:08;;;;;;;7.13;6.18;;;;;;;;;;5028285;28;20221;-68
2022/04/14 10:45:46;;;;;;;8.77;6.15;;;;;;;;;;5027936;28;20256;-68
2022/04/14 10:48:25;;;;;;;7.70;6.47;;;;;;;;;;5027535;28;20202;-68
2022/04/14 10:51:10;;;;;;;8.20;6.25;;;;;;;;;;5030238;28;20178;-68
2022/04/14 10:53:46;;;;;;;7.72;5.38;;;;;;;;;;5025339;28;20189;-68
2022/04/14 10:56:31;;;;;;;5.72;5.00;;;;;;;;;;5027616;28;20252;-68
2022/04/14 10:58:57;;;;;;;7.65;5.75;;;;;;;;;;5030347;28;20236;-68
2022/04/14 11:01:41;;;;;;;8.80;5.50;;;;;;;;;;5025410;28;20660;-68
2022/04/14 11:04:22;;;;;;;7.28;6.50;;;;;;;;;;5023947;28;20233;-68
2022/04/14 11:06:48;;;;;;;7.32;5.55;;;;;;;;;;5030879;28;20181;-68
2022/04/14 11:09:32;;;;;;;4.40;3.53;;;;;;;;;;5029703;28;20314;-68
2022/04/14 11:12:01;;;;;;;8.30;3.88;;;;;;;;;;5017662;28;20679;-67
2022/04/14 11:14:26;;;;;;;6.40;3.22;;;;;;;;;;5028009;28;20193;-67
2022/04/14 11:16:52;;;;;;;3.27;2.97;;;;;;;;;;5029325;28;20289;-67
2022/04/14 11:19:17;;;;;;;5.35;3.38;;;;;;;;;;5028236;28;20961;-67
2022/04/14 11:22:01;;;;;;;5.28;4.20;;;;;;;;;;5029736;28;20663;-69
2022/04/14 11:24:33;;;;;;;4.75;3.90;;;;;;;;;;5027729;28;20658;-67
2022/04/14 11:27:29;;;;;;;7.05;4.13;;;;;;;;;;5026171;28;20193;-67
2022/04/14 11:30:03;;;;;;;7.05;3.50;;;;;;;;;;5024912;28;20190;-67
2022/04/14 11:32:35;;;;;;;4.82;3.75;;;;;;;;;;5026449;28;20293;-68
2022/04/14 11:35:13;;;;;;;5.72;3.92;;;;;;;;;;5026034;28;20189;-67
2022/04/14 11:37:41;;;;;;;5.97;4.03;;;;;;;;;;5026871;28;20170;-68
2022/04/14 11:40:10;;;;;;;5.00;3.83;;;;;;;;;;5028318;28;20183;-67
2022/04/14 11:42:35;;;;;;;5.78;4.20;;;;;;;;;;5030606;28;20601;-67
2022/04/14 11:45:01;;;;;;;4.57;3.92;;;;;;;;;;5027442;28;20205;-67
2022/04/14 11:47:26;;;;;;;5.27;3.77;;;;;;;;;;5030827;28;20729;-67
2022/04/14 11:49:52;;;;;;;6.20;3.77;;;;;;;;;;5028427;28;20427;-67
2022/04/14 11:52:20;;;;;;;5.93;3.38;;;;;;;;;;5028572;28;20431;-67
2022/04/14 11:54:46;;;;;;;4.00;3.13;;;;;;;;;;5027210;28;20285;-68
2022/04/14 11:57:12;;;;;;;5.57;4.18;;;;;;;;;;5027559;28;20210;-68
2022/04/14 11:59:44;;;;;;;4.78;3.78;;;;;;;;;;5029292;28;20257;-68
2022/04/14 12:02:14;;;;;;;6.38;5.22;;;;;;;;;;5035433;28;20175;-68
2022/04/14 12:04:42;;;;;;;6.50;4.57;;;;;;;;;;5029749;28;20621;-68
2022/04/14 12:07:08;;;;;;;6.47;4.13;;;;;;;;;;5030819;28;20175;-68
2022/04/14 12:09:33;;;;;;;4.00;3.60;;;;;;;;;;5036075;28;20206;-68
2022/04/14 12:12:08;;;;;;;5.20;3.97;;;;;;;;;;5035127;28;20174;-68
2022/04/14 12:14:33;;;;;;;5.78;4.13;;;;;;;;;;5032161;28;20924;-68
2022/04/14 12:16:58;;;;;;;5.87;4.50;;;;;;;;;;5030286;28;20271;-68
2022/04/14 12:19:38;;;;;;;9.57;4.17;;;;;;;;;;5030864;28;20451;-68
2022/04/14 12:22:05;;;;;;;7.82;4.43;;;;;;;;;;5029262;28;20182;-67
2022/04/14 12:24:30;;;;;;;6.20;4.75;;;;;;;;;;5030426;28;20686;-68
2022/04/14 12:26:55;;;;;;;4.57;4.17;;;;;;;;;;5031433;28;20214;-68
2022/04/14 12:29:21;;;;;;;6.10;4.47;;;;;;;;;;5032847;28;20458;-68
2022/04/14 12:31:46;;;;;;;3.92;3.53;;;;;;;;;;5033367;28;20655;-67
2022/04/14 12:34:12;;;;;;;5.47;3.60;;;;;;;;;;5031549;28;20178;-68
2022/04/14 12:36:37;;;;;;;9.15;3.60;;;;;;;;;;5033849;28;20442;-68
2022/04/14 12:39:04;;;;;;;4.80;3.50;;;;;;;;;;5032237;28;20604;-68
2022/04/14 12:41:34;;;;;;;3.90;2.90;;;;;;;;;;5032197;28;20205;-67
2022/04/14 12:43:59;;;;;;;3.45;2.60;;;;;;;;;;5030830;28;20194;-68
2022/04/14 12:46:25;;;;;;;4.70;3.47;;;;;;;;;;5031755;28;20189;-67
2022/04/14 12:49:06;;;;;;;4.15;2.83;;;;;;;;;;5030766;28;20796;-68
2022/04/14 12:51:33;;;;;;;5.47;3.35;;;;;;;;;;5033561;28;20202;-68
2022/04/14 12:53:59;;;;;;;3.78;3.03;;;;;;;;;;5030284;28;20229;-68
2022/04/14 12:56:25;;;;;;;3.58;3.10;;;;;;;;;;5030362;28;20202;-68
2022/04/14 12:59:06;;;;;;;5.07;3.30;;;;;;;;;;5026833;28;20209;-67
2022/04/14 13:01:44;;;;;;;3.22;2.90;;;;;;;;;;5017882;28;20439;-67
2022/04/14 13:04:10;;;;;;;3.80;2.60;;;;;;;;;;5024385;28;20206;-66
2022/04/14 13:06:35;;;;;;;4.05;2.88;;;;;;;;;;5032119;28;20182;-67
2022/04/14 13:09:12;;;;;;;3.87;3.40;;;;;;;;;;5026851;28;20289;-67
2022/04/14 13:11:45;;;;;;;3.78;2.58;;;;;;;;;;5032572;28;20931;-67
2022/04/14 13:14:20;;;;;;;4.00;2.28;;;;;;;;;;5030986;28;20333;-67
2022/04/14 13:16:46;;;;;;;2.95;2.55;;;;;;;;;;5026898;28;20230;-67
2022/04/14 13:19:11;;;;;;;2.40;2.15;;;;;;;;;;5023333;28;20355;-67
2022/04/14 13:21:37;;;;;;;3.58;2.45;;;;;;;;;;5031705;28;20189;-67
2022/04/14 13:24:02;;;;;;;2.83;2.53;;;;;;;;;;5031349;28;20685;-67
2022/04/14 13:26:27;;;;;;;2.45;2.25;;;;;;;;;;5026912;28;20726;-67
2022/04/14 13:28:53;;;;;;;2.80;2.60;;;;;;;;;;5031067;28;20194;-68
2022/04/14 13:31:18;;;;;;;3.13;2.83;;;;;;;;;;5028802;28;20937;-67
2022/04/14 13:33:43;;;;;;;3.27;2.77;;;;;;;;;;5031534;28;20411;-68
2022/04/14 13:36:08;;;;;;;4.73;2.90;;;;;;;;;;5031619;28;20928;-67
2022/04/14 13:38:33;;;;;;;4.00;3.60;;;;;;;;;;5031959;28;20426;-68
2022/04/14 13:40:58;;;;;;;3.90;3.20;;;;;;;;;;5028515;28;20514;-67
2022/04/14 13:43:24;;;;;;;3.70;3.40;;;;;;;;;;5032694;28;20504;-68
2022/04/14 13:45:49;;;;;;;4.53;3.80;;;;;;;;;;5032084;28;20796;-67
2022/04/14 13:48:14;;;;;;;3.87;3.07;;;;;;;;;;5032856;28;20197;-68
2022/04/14 13:50:43;;;;;;;4.87;3.23;;;;;;;;;;5028955;28;20400;-68
2022/04/14 13:53:10;;;;;;;4.93;3.45;;;;;;;;;;5029206;28;20921;-67
2022/04/14 13:55:37;;;;;;;4.25;3.10;;;;;;;;;;5020205;28;20186;-67
2022/04/14 13:58:02;;;;;;;4.53;3.53;;;;;;;;;;5032380;28;20201;-68
2022/04/14 14:00:27;;;;;;;3.87;3.40;;;;;;;;;;5029077;28;20179;-67
2022/04/14 14:02:52;;;;;;;4.43;3.60;;;;;;;;;;5025792;28;20427;-68
2022/04/14 14:05:19;;;;;;;6.68;3.35;;;;;;;;;;5029072;28;20452;-68
2022/04/14 14:07:44;;;;;;;5.72;3.83;;;;;;;;;;5027359;28;20198;-68
2022/04/14 14:10:09;;;;;;;4.90;4.20;;;;;;;;;;5029251;28;20166;-67
2022/04/14 14:12:39;;;;;;;3.80;3.42;;;;;;;;;;5029438;28;20435;-68
2022/04/14 14:15:05;;;;;;;4.60;3.47;;;;;;;;;;5030479;28;20202;-67
2022/04/14 14:17:31;;;;;;;5.53;3.70;;;;;;;;;;5029791;28;20231;-68
2022/04/14 14:19:56;;;;;;;4.40;3.58;;;;;;;;;;5022609;28;20193;-68
2022/04/14 14:22:21;;;;;;;4.28;3.67;;;;;;;;;;5028691;28;20197;-68